Time;durP1;ratioP1;P1;durP2;ratioP2;P2;SDS_P1;SDS_P2;PMS_P1;PMS_P2;Temp;Humidity;BMP_temperature;BMP_pressure;BME280_temperature;BME280_humidity;BME280_pressure;Samples;Min_cycle;Max_cycle;Signal;HPM_P1;HPM_P2
2021/07/06 00:00:39;;;;;;;32.05;4.88;;;13.90;99.90;;;;;;5018278;28;20338;-89
2021/07/06 00:03:07;;;;;;;25.63;4.65;;;13.90;99.90;;;;;;5015401;28;20041;-89
2021/07/06 00:05:35;;;;;;;27.45;5.45;;;13.90;99.90;;;;;;5011829;28;20045;-89
2021/07/06 00:08:02;;;;;;;28.88;4.78;;;13.90;99.90;;;;;;5025249;28;20037;-88
2021/07/06 00:10:31;;;;;;;27.73;4.70;;;14.00;99.90;;;;;;5013604;28;20475;-89
2021/07/06 00:12:59;;;;;;;30.50;5.28;;;14.00;99.90;;;;;;5012751;28;20049;-89
2021/07/06 00:15:27;;;;;;;25.80;4.82;;;14.00;99.90;;;;;;5006614;28;20046;-89
2021/07/06 00:17:55;;;;;;;21.75;4.85;;;14.00;99.90;;;;;;5011503;28;20046;-89
2021/07/06 00:20:26;;;;;;;;;;;14.00;99.90;;;;;;5004950;28;20038;-89
2021/07/06 00:22:55;;;;;;;39.97;5.88;;;14.00;99.90;;;;;;5011190;28;19921;-88
2021/07/06 00:25:23;;;;;;;28.42;5.30;;;14.00;99.90;;;;;;5006363;28;20049;-88
2021/07/06 00:27:51;;;;;;;28.80;4.03;;;14.00;99.90;;;;;;5011868;28;20065;-89
2021/07/06 00:30:19;;;;;;;22.27;3.85;;;13.90;99.90;;;;;;5007352;28;20045;-89
2021/07/06 00:32:47;;;;;;;23.45;3.72;;;13.80;99.90;;;;;;5010905;28;20049;-89
2021/07/06 00:35:15;;;;;;;18.40;4.95;;;13.80;99.90;;;;;;5009846;28;20052;-90
2021/07/06 00:37:43;;;;;;;22.88;4.55;;;13.80;99.90;;;;;;5011873;28;20038;-89
2021/07/06 00:40:11;;;;;;;19.05;3.90;;;13.80;99.90;;;;;;5017644;28;20069;-90
2021/07/06 00:42:45;;;;;;;22.07;4.03;;;13.70;99.90;;;;;;5013743;28;20120;-89
2021/07/06 00:45:15;;;;;;;21.27;3.63;;;13.70;99.90;;;;;;5010714;28;20077;-89
2021/07/06 00:47:45;;;;;;;20.80;3.90;;;13.70;99.90;;;;;;5009260;28;20049;-88
2021/07/06 00:50:18;;;;;;;18.52;3.28;;;13.60;99.90;;;;;;5012118;28;20045;-89
2021/07/06 00:52:46;;;;;;;22.63;4.47;;;13.60;99.90;;;;;;5010894;28;20530;-88
2021/07/06 00:55:14;;;;;;;25.85;4.45;;;13.60;99.90;;;;;;5008419;28;20046;-89
2021/07/06 00:57:41;;;;;;;22.90;4.00;;;13.50;99.90;;;;;;5030952;28;20037;-89
2021/07/06 01:00:16;;;;;;;20.15;3.83;;;13.50;99.90;;;;;;5011714;28;20041;-89
2021/07/06 01:02:44;;;;;;;21.92;3.72;;;13.40;99.90;;;;;;5014195;28;20041;-88
2021/07/06 01:05:15;;;;;;;27.98;4.78;;;13.40;99.90;;;;;;5011303;28;20046;-88
2021/07/06 01:07:43;;;;;;;18.05;3.72;;;13.40;99.90;;;;;;5017680;28;20049;-88
2021/07/06 01:10:11;;;;;;;22.05;3.70;;;13.30;99.90;;;;;;5001431;28;20050;-88
2021/07/06 01:12:40;;;;;;;28.50;4.82;;;13.30;99.90;;;;;;5012947;28;20501;-88
2021/07/06 01:15:09;;;;;;;;;;;13.30;99.90;;;;;;5018047;28;20042;-90
2021/07/06 01:17:39;;;;;;;27.63;3.70;;;13.20;99.90;;;;;;5018249;28;20420;-89
2021/07/06 01:20:16;;;;;;;26.08;4.63;;;13.20;99.90;;;;;;5010588;28;20041;-90
2021/07/06 01:22:44;;;;;;;27.58;4.15;;;13.20;99.90;;;;;;5014329;28;20053;-89
2021/07/06 01:25:13;;;;;;;28.65;4.32;;;13.10;99.90;;;;;;5022765;28;20083;-89
2021/07/06 01:27:41;;;;;;;31.63;4.47;;;13.10;99.90;;;;;;5019183;28;20041;-88
2021/07/06 01:30:14;;;;;;;28.83;5.05;;;13.10;99.90;;;;;;5017568;28;20136;-89
2021/07/06 01:32:45;;;;;;;25.15;4.63;;;13.10;99.90;;;;;;5014556;28;20042;-89
2021/07/06 01:35:15;;;;;;;28.17;4.63;;;13.10;99.90;;;;;;5009749;28;20037;-89
2021/07/06 01:37:44;;;;;;;27.45;4.82;;;13.10;99.90;;;;;;5014222;28;20471;-90
2021/07/06 01:40:14;;;;;;;23.30;4.00;;;13.10;99.90;;;;;;4999759;28;20045;-89
2021/07/06 01:42:43;;;;;;;38.22;5.07;;;13.00;99.90;;;;;;5012405;28;20089;-89
2021/07/06 01:45:15;;;;;;;34.63;5.30;;;13.00;99.90;;;;;;5007049;28;20052;-88
2021/07/06 01:47:45;;;;;;;35.20;4.82;;;13.00;99.90;;;;;;5007133;28;20069;-89
2021/07/06 01:50:19;;;;;;;40.60;5.75;;;13.00;99.90;;;;;;5005509;28;20050;-89
2021/07/06 01:52:55;;;;;;;32.25;4.95;;;13.00;99.90;;;;;;5012515;28;20045;-90
2021/07/06 01:55:27;;;;;;;36.35;5.57;;;13.00;99.90;;;;;;5021525;28;20151;-89
2021/07/06 01:57:56;;;;;;;44.15;5.68;;;13.00;99.90;;;;;;5009404;28;20050;-89
2021/07/06 02:00:28;;;;;;;37.40;5.72;;;13.00;99.90;;;;;;5010100;28;20049;-89
2021/07/06 02:02:58;;;;;;;35.63;4.82;;;13.00;99.90;;;;;;5006820;28;20051;-90
2021/07/06 02:05:33;;;;;;;26.40;4.35;;;13.10;99.90;;;;;;5007245;28;20443;-89
2021/07/06 02:08:01;;;;;;;26.27;4.90;;;13.00;99.90;;;;;;5010240;28;20049;-89
2021/07/06 02:10:31;;;;;;;25.83;4.03;;;13.00;99.90;;;;;;5006905;28;20125;-89
2021/07/06 02:13:01;;;;;;;33.47;4.72;;;13.10;99.90;;;;;;5029568;28;20053;-89
2021/07/06 02:15:30;;;;;;;28.20;4.95;;;13.10;99.90;;;;;;5009828;28;20049;-90
2021/07/06 02:18:00;;;;;;;28.60;4.63;;;13.00;99.90;;;;;;5013505;28;20050;-89
2021/07/06 02:20:29;;;;;;;21.90;3.80;;;13.10;99.90;;;;;;5010869;28;20120;-90
2021/07/06 02:22:59;;;;;;;20.67;3.15;;;13.10;99.90;;;;;;5012510;28;20050;-89
2021/07/06 02:25:29;;;;;;;16.63;2.90;;;13.10;99.90;;;;;;5008515;28;20076;-90
2021/07/06 02:27:59;;;;;;;22.50;4.07;;;13.10;99.90;;;;;;5000071;28;20038;-89
2021/07/06 02:30:28;;;;;;;25.65;3.97;;;13.10;99.90;;;;;;5002223;28;20053;-90
2021/07/06 02:32:57;;;;;;;28.38;4.15;;;13.10;99.90;;;;;;5010477;28;20479;-90
2021/07/06 02:35:29;;;;;;;30.95;4.22;;;13.10;99.90;;;;;;5008679;28;20060;-89
2021/07/06 02:37:57;;;;;;;25.40;3.95;;;13.10;99.90;;;;;;5011703;28;20436;-89
2021/07/06 02:40:27;;;;;;;31.20;4.28;;;13.10;99.90;;;;;;5013643;28;20045;-88
2021/07/06 02:42:58;;;;;;;25.48;4.65;;;13.10;99.90;;;;;;5012798;28;20037;-89
2021/07/06 02:45:29;;;;;;;23.98;4.40;;;13.10;99.90;;;;;;5012467;28;20128;-89
2021/07/06 02:47:59;;;;;;;25.15;4.35;;;13.10;99.90;;;;;;5013086;28;20049;-89
2021/07/06 02:50:29;;;;;;;26.70;3.47;;;13.10;99.90;;;;;;5024232;28;20346;-89
2021/07/06 02:52:57;;;;;;;;;;;13.10;99.90;;;;;;5012739;28;20046;-89
2021/07/06 02:55:26;;;;;;;24.73;3.55;;;13.10;99.90;;;;;;5025322;28;20348;-89
2021/07/06 02:57:55;;;;;;;17.52;3.78;;;13.20;99.90;;;;;;5007458;28;20096;-89
2021/07/06 03:00:27;;;;;;;23.67;3.50;;;13.20;99.90;;;;;;5004570;28;20045;-89
2021/07/06 03:03:02;;;;;;;26.73;3.92;;;13.20;99.90;;;;;;5018275;28;20055;-89
2021/07/06 03:05:32;;;;;;;25.77;4.57;;;13.20;99.90;;;;;;5016986;28;20114;-89
2021/07/06 03:08:01;;;;;;;23.40;3.72;;;13.20;99.90;;;;;;4999339;28;20100;-89
2021/07/06 03:10:33;;;;;;;;;;;13.20;99.90;;;;;;5027151;28;20045;-89
2021/07/06 03:13:02;;;;;;;21.55;3.60;;;13.20;99.90;;;;;;5009519;28;20316;-89
2021/07/06 03:15:31;;;;;;;;;;;13.20;99.90;;;;;;5013364;28;20038;-89
2021/07/06 03:18:02;;;;;;;20.13;2.85;;;13.20;99.90;;;;;;5019259;28;19964;-89
2021/07/06 03:20:30;;;;;;;19.27;2.83;;;13.20;99.90;;;;;;5009510;28;20041;-89
2021/07/06 03:22:57;;;;;;;20.80;3.33;;;13.20;99.90;;;;;;5003494;28;20052;-89
2021/07/06 03:25:27;;;;;;;26.95;3.97;;;13.20;99.90;;;;;;5023723;28;20053;-89
2021/07/06 03:27:56;;;;;;;26.95;3.22;;;13.30;99.90;;;;;;5005897;28;20086;-89
2021/07/06 03:30:27;;;;;;;25.33;3.72;;;13.20;99.90;;;;;;5011940;28;20076;-89
2021/07/06 03:32:56;;;;;;;24.05;3.50;;;13.30;99.90;;;;;;5014555;28;20045;-90
2021/07/06 03:35:26;;;;;;;23.45;4.18;;;13.30;99.90;;;;;;5011046;28;20048;-89
2021/07/06 03:37:54;;;;;;;23.40;3.72;;;13.30;99.90;;;;;;5004620;28;20049;-89
2021/07/06 03:40:22;;;;;;;25.73;4.05;;;13.30;99.90;;;;;;5004790;28;20045;-89
2021/07/06 03:42:52;;;;;;;26.08;3.55;;;13.30;99.90;;;;;;5029165;28;20071;-88
2021/07/06 03:45:21;;;;;;;25.52;3.35;;;13.30;99.90;;;;;;5021869;28;20099;-89
2021/07/06 03:47:50;;;;;;;28.40;3.85;;;13.30;99.90;;;;;;5016913;28;20540;-88
2021/07/06 03:50:22;;;;;;;;;;;13.30;99.90;;;;;;5025362;28;20049;-89
2021/07/06 03:52:53;;;;;;;21.10;3.05;;;13.30;99.90;;;;;;5011430;28;19952;-89
2021/07/06 03:55:22;;;;;;;19.38;3.35;;;13.30;99.90;;;;;;5008014;28;20049;-89
2021/07/06 03:57:50;;;;;;;17.38;2.40;;;13.20;99.90;;;;;;5002560;28;20050;-89
2021/07/06 04:00:27;;;;;;;17.08;3.47;;;13.30;99.90;;;;;;5020439;28;20121;-89
2021/07/06 04:02:55;;;;;;;24.15;3.28;;;13.30;99.90;;;;;;5011800;28;20049;-89
2021/07/06 04:05:24;;;;;;;19.17;3.50;;;13.30;99.90;;;;;;5011133;28;20038;-88
2021/07/06 04:07:52;;;;;;;14.40;2.80;;;13.30;99.90;;;;;;5012117;28;20498;-89
2021/07/06 04:10:20;;;;;;;17.88;3.38;;;13.30;99.90;;;;;;5010228;28;20044;-88
2021/07/06 04:12:49;;;;;;;22.90;4.03;;;13.30;99.90;;;;;;5010657;28;20037;-88
2021/07/06 04:15:17;;;;;;;;;;;13.30;99.90;;;;;;5008890;28;20506;-89
2021/07/06 04:17:46;;;;;;;;;;;13.30;99.90;;;;;;5010125;28;19936;-89
2021/07/06 04:20:14;;;;;;;;;;;13.30;99.90;;;;;;5009749;28;19921;-88
2021/07/06 04:22:43;;;;;;;20.88;3.10;;;13.30;99.90;;;;;;5030564;28;19927;-89
2021/07/06 04:25:11;;;;;;;26.15;4.72;;;13.30;99.90;;;;;;5007403;28;20041;-89
2021/07/06 04:27:39;;;;;;;30.42;4.68;;;13.30;99.90;;;;;;5009816;28;20049;-88
2021/07/06 04:30:08;;;;;;;29.13;3.92;;;13.30;99.90;;;;;;5008464;28;20045;-89
2021/07/06 04:32:36;;;;;;;23.60;4.88;;;13.30;99.90;;;;;;5012419;28;20054;-88
2021/07/06 04:35:05;;;;;;;22.08;3.55;;;13.40;99.90;;;;;;5029459;28;20049;-89
2021/07/06 04:37:33;;;;;;;28.90;4.60;;;13.40;99.90;;;;;;5013370;28;20044;-88
2021/07/06 04:40:02;;;;;;;23.83;4.68;;;13.40;99.90;;;;;;5014640;28;20049;-89
2021/07/06 04:42:29;;;;;;;23.75;4.28;;;13.40;99.90;;;;;;5016195;28;20041;-88
2021/07/06 04:44:57;;;;;;;24.40;4.50;;;13.50;99.90;;;;;;5015836;28;20368;-89
2021/07/06 04:47:24;;;;;;;29.17;5.22;;;13.40;99.90;;;;;;5013168;28;20052;-88
2021/07/06 04:49:52;;;;;;;20.88;4.15;;;13.40;99.90;;;;;;5012014;28;20045;-89
2021/07/06 04:52:22;;;;;;;15.52;3.08;;;13.40;99.90;;;;;;5013073;28;20077;-90
2021/07/06 04:54:50;;;;;;;19.50;3.05;;;13.30;99.90;;;;;;5009453;28;20049;-90
2021/07/06 04:57:21;;;;;;;23.73;3.35;;;13.20;99.90;;;;;;5013556;28;20133;-89
2021/07/06 04:59:49;;;;;;;19.77;3.28;;;13.20;99.90;;;;;;5012196;28;20045;-89
2021/07/06 05:02:17;;;;;;;17.55;2.90;;;13.20;99.90;;;;;;5011442;28;20033;-89
2021/07/06 05:04:45;;;;;;;16.77;2.80;;;13.10;99.90;;;;;;5018175;28;20387;-89
2021/07/06 05:07:14;;;;;;;21.95;3.88;;;13.10;99.90;;;;;;5012619;28;20044;-88
2021/07/06 05:09:41;;;;;;;19.65;2.88;;;13.10;99.90;;;;;;5013891;28;20047;-88
2021/07/06 05:12:09;;;;;;;16.35;3.10;;;13.10;99.90;;;;;;5020557;28;20558;-89
2021/07/06 05:14:37;;;;;;;19.30;3.47;;;13.10;99.90;;;;;;5027143;28;20544;-89
2021/07/06 05:17:05;;;;;;;17.87;2.97;;;13.10;99.90;;;;;;5030745;28;20044;-87
2021/07/06 05:19:32;;;;;;;23.25;2.85;;;13.10;99.90;;;;;;5015705;28;20276;-89
2021/07/06 05:22:00;;;;;;;15.75;2.78;;;13.10;99.90;;;;;;4999168;28;20388;-89
2021/07/06 05:24:27;;;;;;;21.05;3.55;;;13.20;99.90;;;;;;5007986;28;20485;-88
2021/07/06 05:26:54;;;;;;;29.60;4.30;;;13.20;99.90;;;;;;5018290;28;20045;-89
2021/07/06 05:29:22;;;;;;;24.33;4.23;;;13.30;99.90;;;;;;5013353;28;20103;-88
2021/07/06 05:31:50;;;;;;;29.65;4.20;;;13.30;99.90;;;;;;5014151;28;20418;-89
2021/07/06 05:34:17;;;;;;;32.03;4.88;;;13.30;99.90;;;;;;5021141;28;20442;-88
2021/07/06 05:36:47;;;;;;;26.42;5.13;;;13.30;99.90;;;;;;5026887;28;20051;-90
2021/07/06 05:39:14;;;;;;;23.90;4.03;;;13.30;99.90;;;;;;5019278;28;20136;-89
2021/07/06 05:41:42;;;;;;;26.75;4.13;;;13.30;99.90;;;;;;5016198;28;20045;-89
2021/07/06 05:44:11;;;;;;;23.25;4.50;;;13.30;99.90;;;;;;5028083;28;20056;-89
2021/07/06 05:46:38;;;;;;;;;;;13.40;99.90;;;;;;5019347;28;20041;-89
2021/07/06 05:49:06;;;;;;;31.30;4.53;;;13.40;99.90;;;;;;5043341;28;19921;-90
2021/07/06 05:51:34;;;;;;;30.15;4.63;;;13.40;99.90;;;;;;5015264;28;20037;-89
2021/07/06 05:54:01;;;;;;;27.13;4.68;;;13.40;99.90;;;;;;5033281;28;20049;-89
2021/07/06 05:56:30;;;;;;;19.30;4.13;;;13.40;99.90;;;;;;5011477;28;20049;-89
2021/07/06 05:58:59;;;;;;;29.30;4.60;;;13.40;99.90;;;;;;4997215;28;20037;-89
2021/07/06 06:01:30;;;;;;;;;;;13.40;99.90;;;;;;5017410;28;20049;-89
2021/07/06 06:03:58;;;;;;;23.00;4.00;;;13.40;99.90;;;;;;5011703;28;19951;-89
2021/07/06 06:06:26;;;;;;;22.07;3.70;;;13.40;99.90;;;;;;5010832;28;20406;-89
2021/07/06 06:08:53;;;;;;;27.77;3.97;;;13.50;99.90;;;;;;4999424;28;20057;-89
2021/07/06 06:11:21;;;;;;;27.27;4.57;;;13.50;99.90;;;;;;5009669;28;20344;-89
2021/07/06 06:13:48;;;;;;;24.65;3.55;;;13.60;99.90;;;;;;5009988;28;20124;-90
2021/07/06 06:16:16;;;;;;;20.33;3.88;;;13.70;99.90;;;;;;5014613;28;20045;-89
2021/07/06 06:18:44;;;;;;;23.27;3.67;;;13.70;99.90;;;;;;5018420;28;20099;-89
2021/07/06 06:21:11;;;;;;;34.83;4.60;;;13.80;99.90;;;;;;5018513;28;20068;-89
2021/07/06 06:23:39;;;;;;;21.77;3.92;;;13.80;99.90;;;;;;5015661;28;20120;-89
2021/07/06 06:26:06;;;;;;;19.20;3.88;;;13.90;99.90;;;;;;5026704;28;20128;-90
2021/07/06 06:28:36;;;;;;;23.42;4.55;;;14.00;99.90;;;;;;5015102;28;20076;-89
2021/07/06 06:31:03;;;;;;;14.88;3.17;;;14.00;99.90;;;;;;5009955;28;20053;-89
2021/07/06 06:33:31;;;;;;;21.20;3.40;;;14.00;99.90;;;;;;5012260;28;20051;-89
2021/07/06 06:35:59;;;;;;;22.15;4.05;;;14.10;99.90;;;;;;5014044;28;20479;-90
2021/07/06 06:38:26;;;;;;;18.53;3.37;;;14.20;99.90;;;;;;5010747;28;20122;-89
2021/07/06 06:40:54;;;;;;;16.60;3.53;;;14.30;99.90;;;;;;5005831;28;20120;-90
2021/07/06 06:43:24;;;;;;;17.10;3.20;;;14.40;99.90;;;;;;5008891;28;20045;-89
2021/07/06 06:45:53;;;;;;;17.88;3.70;;;14.50;99.90;;;;;;5011149;28;20057;-89
2021/07/06 06:48:21;;;;;;;23.80;3.72;;;14.60;99.90;;;;;;5012209;28;20096;-89
2021/07/06 06:50:48;;;;;;;16.95;3.30;;;14.60;99.90;;;;;;5008449;28;20516;-89
2021/07/06 06:53:16;;;;;;;23.73;3.70;;;14.60;99.90;;;;;;5008993;28;20053;-89
2021/07/06 06:55:44;;;;;;;20.52;3.38;;;14.60;99.90;;;;;;5013053;28;20443;-89
2021/07/06 06:58:12;;;;;;;26.70;3.65;;;14.60;99.90;;;;;;5009143;28;20045;-89
2021/07/06 07:00:40;;;;;;;15.13;2.80;;;14.60;99.90;;;;;;5014095;28;20049;-89
2021/07/06 07:03:09;;;;;;;16.45;3.00;;;14.60;99.90;;;;;;5008394;28;20502;-88
2021/07/06 07:05:36;;;;;;;17.35;3.33;;;14.60;99.90;;;;;;5010270;28;20362;-88
2021/07/06 07:08:04;;;;;;;17.65;2.90;;;14.70;99.90;;;;;;5005946;28;20052;-88
2021/07/06 07:10:32;;;;;;;22.30;3.88;;;14.80;99.90;;;;;;5009762;28;20065;-88
2021/07/06 07:12:59;;;;;;;14.73;2.70;;;14.90;99.90;;;;;;5004953;28;20434;-88
2021/07/06 07:15:27;;;;;;;16.02;2.90;;;14.90;99.90;;;;;;5006088;28;20420;-88
2021/07/06 07:17:55;;;;;;;18.27;3.00;;;15.00;99.90;;;;;;5006964;28;20054;-88
2021/07/06 07:20:23;;;;;;;15.00;2.93;;;15.00;99.90;;;;;;5010833;28;20045;-88
2021/07/06 07:22:51;;;;;;;12.02;2.80;;;15.20;99.90;;;;;;5009509;28;20085;-89
2021/07/06 07:25:20;;;;;;;17.50;2.65;;;15.30;99.90;;;;;;5007275;28;20049;-89
2021/07/06 07:27:48;;;;;;;14.43;2.55;;;15.40;99.90;;;;;;5012872;28;20048;-89
2021/07/06 07:30:18;;;;;;;13.10;2.80;;;15.50;99.90;;;;;;5004263;28;20041;-89
2021/07/06 07:32:47;;;;;;;14.77;2.50;;;15.60;99.90;;;;;;5006394;28;20045;-88
2021/07/06 07:35:17;;;;;;;12.88;2.80;;;15.70;99.90;;;;;;5008080;28;20067;-89
2021/07/06 07:37:45;;;;;;;11.50;2.70;;;15.80;99.90;;;;;;5000595;28;20109;-88
2021/07/06 07:40:15;;;;;;;;;;;15.80;99.90;;;;;;5007986;28;20049;-88
2021/07/06 07:42:43;;;;;;;15.23;2.53;;;15.90;99.90;;;;;;5005900;28;19981;-89
2021/07/06 07:45:12;;;;;;;10.88;2.17;;;16.00;99.90;;;;;;5012800;28;20132;-89
2021/07/06 07:47:39;;;;;;;;;;;16.00;99.90;;;;;;5008044;28;20042;-90
2021/07/06 07:50:08;;;;;;;11.38;2.05;;;16.00;99.90;;;;;;5010132;28;19939;-89
2021/07/06 07:52:36;;;;;;;11.68;2.28;;;16.00;99.90;;;;;;5009336;28;20064;-89
2021/07/06 07:55:05;;;;;;;12.85;2.45;;;16.10;99.90;;;;;;5008370;28;20131;-89
2021/07/06 07:57:34;;;;;;;9.23;2.33;;;16.20;99.90;;;;;;5004173;28;20498;-89
2021/07/06 08:00:03;;;;;;;10.88;2.38;;;16.10;99.90;;;;;;5009075;28;20054;-89
2021/07/06 08:02:30;;;;;;;;;;;16.00;99.90;;;;;;5003905;28;20432;-89
2021/07/06 08:04:58;;;;;;;13.57;2.15;;;16.00;99.90;;;;;;5007876;28;19922;-89
2021/07/06 08:07:27;;;;;;;16.02;2.92;;;16.00;99.90;;;;;;5006285;28;20105;-89
2021/07/06 08:09:54;;;;;;;13.68;2.58;;;16.10;99.90;;;;;;5008446;28;20056;-89
2021/07/06 08:12:21;;;;;;;13.68;2.47;;;16.00;99.90;;;;;;5005942;28;20286;-89
2021/07/06 08:14:51;;;;;;;18.25;2.78;;;16.00;99.90;;;;;;5011024;28;20049;-89
2021/07/06 08:17:19;;;;;;;13.52;2.50;;;16.00;99.90;;;;;;5011383;28;20059;-89
2021/07/06 08:19:46;;;;;;;10.05;2.33;;;16.00;99.90;;;;;;5010373;28;20081;-88
2021/07/06 08:22:14;;;;;;;9.98;2.08;;;16.00;99.90;;;;;;5005642;28;20049;-88
2021/07/06 08:24:41;;;;;;;10.60;2.03;;;16.00;99.90;;;;;;5007820;28;20443;-89
2021/07/06 08:27:09;;;;;;;15.65;2.78;;;15.90;99.90;;;;;;5006294;28;20398;-89
2021/07/06 08:29:37;;;;;;;16.52;2.35;;;15.90;99.90;;;;;;5005544;28;20038;-88
2021/07/06 08:32:04;;;;;;;15.98;2.65;;;16.00;99.90;;;;;;5005221;28;20439;-88
2021/07/06 08:34:32;;;;;;;17.50;3.17;;;16.00;99.90;;;;;;5008611;28;20332;-88
2021/07/06 08:36:59;;;;;;;20.90;2.75;;;16.00;99.90;;;;;;5007505;28;20081;-88
2021/07/06 08:39:27;;;;;;;16.35;2.70;;;16.00;99.90;;;;;;4987396;28;20046;-89
2021/07/06 08:41:55;;;;;;;14.75;2.63;;;16.10;99.90;;;;;;4988454;28;20045;-88
2021/07/06 08:44:22;;;;;;;13.80;2.60;;;16.00;99.90;;;;;;4996226;28;20042;-88
2021/07/06 08:46:50;;;;;;;13.32;2.20;;;16.00;99.90;;;;;;4991983;28;20046;-88
2021/07/06 08:49:20;;;;;;;16.50;2.30;;;16.10;99.90;;;;;;4987957;28;20396;-88
2021/07/06 08:51:50;;;;;;;13.30;2.72;;;16.10;99.90;;;;;;4987799;28;20541;-89
2021/07/06 08:54:20;;;;;;;11.70;2.03;;;16.20;99.90;;;;;;4988511;28;20384;-89
2021/07/06 08:56:49;;;;;;;10.30;2.03;;;16.20;99.90;;;;;;4983507;28;21062;-88
2021/07/06 08:59:29;;;;;;;12.30;2.05;;;16.10;99.90;;;;;;4987890;28;20042;-88
2021/07/06 09:01:57;;;;;;;9.80;2.10;;;16.10;99.90;;;;;;4989151;28;20052;-88
2021/07/06 09:04:51;;;;;;;7.20;1.80;;;16.10;99.90;;;;;;5006623;28;20137;-88
2021/07/06 09:07:20;;;;;;;11.88;2.65;;;16.00;99.90;;;;;;4981906;28;20125;-88
2021/07/06 09:09:50;;;;;;;7.90;1.55;;;15.90;99.90;;;;;;5005776;28;20050;-88
2021/07/06 09:12:19;;;;;;;11.65;1.75;;;15.90;99.90;;;;;;4988281;28;20117;-89
2021/07/06 09:14:49;;;;;;;11.30;2.28;;;15.80;99.90;;;;;;4987348;28;20046;-89
2021/07/06 09:17:22;;;;;;;7.45;1.95;;;15.80;99.90;;;;;;4989070;28;20049;-88
2021/07/06 09:19:54;;;;;;;6.53;1.67;;;15.80;99.90;;;;;;5010171;28;20388;-88
2021/07/06 09:22:24;;;;;;;7.03;1.70;;;15.70;99.90;;;;;;4991692;28;20120;-88
2021/07/06 09:25:00;;;;;;;9.80;1.70;;;15.60;99.90;;;;;;4987658;28;20158;-89
2021/07/06 09:27:34;;;;;;;10.93;2.45;;;15.60;99.90;;;;;;4989174;28;20053;-89
2021/07/06 09:30:18;;;;;;;9.05;1.90;;;15.60;99.90;;;;;;5008743;28;20046;-89
2021/07/06 09:32:49;;;;;;;6.63;2.00;;;15.60;99.90;;;;;;5010169;28;20452;-88
2021/07/06 09:35:27;;;;;;;9.80;2.20;;;15.50;99.90;;;;;;4999841;28;20053;-88
2021/07/06 09:38:00;;;;;;;11.40;2.65;;;15.40;99.90;;;;;;4987130;28;20045;-88
2021/07/06 09:40:34;;;;;;;9.10;2.42;;;15.40;99.90;;;;;;5003175;28;20045;-88
2021/07/06 09:43:18;;;;;;;12.23;2.90;;;15.50;99.90;;;;;;4988887;28;20357;-89
2021/07/06 09:45:58;;;;;;;5.18;2.08;;;15.60;99.90;;;;;;4981748;28;20058;-88
2021/07/06 09:48:27;;;;;;;13.40;2.38;;;15.60;99.90;;;;;;4986929;28;20048;-91
2021/07/06 09:51:19;;;;;;;6.60;2.05;;;15.70;99.90;;;;;;4990330;28;20050;-88
2021/07/06 09:53:48;;;;;;;8.48;2.42;;;15.70;99.90;;;;;;4987181;28;20038;-88
2021/07/06 09:56:18;;;;;;;7.68;2.33;;;15.70;99.90;;;;;;4991039;28;20458;-89
2021/07/06 09:58:54;;;;;;;13.40;2.58;;;15.70;99.90;;;;;;4986565;28;20050;-89
2021/07/06 10:01:23;;;;;;;7.82;2.20;;;15.80;99.90;;;;;;5003748;28;20050;-88
2021/07/06 10:03:52;;;;;;;7.80;2.05;;;15.80;99.90;;;;;;4999976;28;20037;-89
2021/07/06 10:06:23;;;;;;;9.52;1.90;;;15.80;99.90;;;;;;4982822;28;20049;-88
2021/07/06 10:08:53;;;;;;;7.55;1.90;;;15.80;99.90;;;;;;4987221;28;20137;-89
2021/07/06 10:11:22;;;;;;;7.13;1.65;;;15.80;99.90;;;;;;4989183;28;20073;-88
2021/07/06 10:13:50;;;;;;;11.63;2.70;;;15.80;99.90;;;;;;4989106;28;20436;-88
2021/07/06 10:16:18;;;;;;;6.50;2.10;;;15.80;99.90;;;;;;4993354;28;20150;-89
2021/07/06 10:18:49;;;;;;;7.57;2.00;;;15.80;99.90;;;;;;4988888;28;20042;-88
2021/07/06 10:21:16;;;;;;;8.52;1.80;;;15.80;99.90;;;;;;4982405;28;20053;-88
2021/07/06 10:23:49;;;;;;;6.60;1.80;;;15.80;99.90;;;;;;4991057;28;20513;-88
2021/07/06 10:26:25;;;;;;;6.10;1.88;;;15.70;99.90;;;;;;5008367;28;20042;-88
2021/07/06 10:28:53;;;;;;;6.18;2.00;;;15.70;99.90;;;;;;4989425;28;20057;-88
2021/07/06 10:31:23;;;;;;;9.05;2.08;;;15.60;99.90;;;;;;4982523;28;20042;-88
2021/07/06 10:33:52;;;;;;;5.05;1.73;;;15.60;99.90;;;;;;4990368;28;20058;-88
2021/07/06 10:36:42;;;;;;;;;;;15.60;99.90;;;;;;4986909;28;20052;-89
2021/07/06 10:39:10;;;;;;;5.68;2.20;;;15.70;99.90;;;;;;4983953;28;20008;-89
2021/07/06 10:41:38;;;;;;;6.25;1.85;;;15.90;99.90;;;;;;4986239;28;20126;-88
2021/07/06 10:44:07;;;;;;;6.50;1.70;;;16.00;99.90;;;;;;4983737;28;20045;-89
2021/07/06 10:46:38;;;;;;;7.95;1.75;;;16.10;99.90;;;;;;4990465;28;20042;-90
2021/07/06 10:49:26;;;;;;;5.75;1.70;;;16.20;99.90;;;;;;4983796;28;20046;-88
2021/07/06 10:51:55;;;;;;;4.03;1.30;;;16.20;99.90;;;;;;4989480;28;20411;-87
2021/07/06 10:54:26;;;;;;;4.32;1.38;;;16.10;99.90;;;;;;4987422;28;22414;-90
2021/07/06 10:56:59;;;;;;;4.32;1.42;;;16.10;99.90;;;;;;4989402;28;20055;-88
2021/07/06 10:59:35;;;;;;;3.45;1.20;;;16.10;99.90;;;;;;4987370;28;20060;-88
2021/07/06 11:02:05;;;;;;;4.28;1.40;;;16.10;99.90;;;;;;4986683;28;20478;-89
2021/07/06 11:04:40;;;;;;;2.08;1.17;;;16.20;99.90;;;;;;4992076;28;20042;-88
2021/07/06 11:07:11;;;;;;;2.70;1.45;;;16.20;99.90;;;;;;4992723;28;20516;-88
2021/07/06 11:09:38;;;;;;;3.97;1.50;;;16.20;99.90;;;;;;4992403;28;20061;-88
2021/07/06 11:12:22;;;;;;;6.57;1.60;;;16.20;99.90;;;;;;4986710;28;20057;-87
2021/07/06 11:14:57;;;;;;;7.88;1.80;;;16.20;99.90;;;;;;4990052;28;20053;-87
2021/07/06 11:17:47;;;;;;;3.08;2.05;;;16.20;99.90;;;;;;4998372;28;21389;-87
2021/07/06 11:20:28;;;;;;;4.82;1.75;;;16.10;99.90;;;;;;5002160;28;20049;-87
2021/07/06 11:22:57;;;;;;;2.47;1.42;;;16.10;99.90;;;;;;4998314;28;20042;-87
2021/07/06 11:25:25;;;;;;;3.88;1.38;;;16.10;99.90;;;;;;4989233;28;20056;-88
2021/07/06 11:27:55;;;;;;;3.53;1.30;;;16.00;99.90;;;;;;4988222;28;20042;-88
2021/07/06 11:30:30;;;;;;;2.88;1.40;;;16.00;99.90;;;;;;4984792;28;20045;-88
2021/07/06 11:33:07;;;;;;;3.85;1.65;;;16.00;99.90;;;;;;4987070;28;20081;-88
2021/07/06 11:35:40;;;;;;;3.90;1.67;;;15.90;99.90;;;;;;5009513;28;20084;-89
2021/07/06 11:38:14;;;;;;;4.25;1.75;;;15.90;99.90;;;;;;5003964;28;20045;-88
2021/07/06 11:40:44;;;;;;;4.18;1.88;;;15.80;99.90;;;;;;5006363;28;20045;-89
2021/07/06 11:43:15;;;;;;;5.90;2.00;;;15.80;99.90;;;;;;5009188;28;20042;-86
2021/07/06 11:45:53;;;;;;;5.78;2.00;;;15.80;99.90;;;;;;5006471;28;20360;-88
2021/07/06 11:48:23;;;;;;;3.63;1.50;;;15.70;99.90;;;;;;5004910;28;20091;-89
2021/07/06 11:50:51;;;;;;;4.50;1.70;;;15.70;99.90;;;;;;5002443;28;20107;-89
2021/07/06 11:53:30;;;;;;;3.42;1.83;;;15.70;99.90;;;;;;5009205;28;20060;-89
2021/07/06 11:56:00;;;;;;;4.85;2.20;;;15.70;99.90;;;;;;5004666;28;20052;-89
2021/07/06 11:58:30;;;;;;;5.75;2.08;;;15.70;99.90;;;;;;5005733;28;20044;-88
2021/07/06 12:00:59;;;;;;;5.78;2.08;;;15.70;99.90;;;;;;5007652;28;20471;-88
2021/07/06 12:03:34;;;;;;;3.92;2.08;;;15.80;99.90;;;;;;5006626;28;20047;-89
2021/07/06 12:06:05;;;;;;;5.18;1.90;;;15.90;99.90;;;;;;5010217;28;20483;-89
2021/07/06 12:08:35;;;;;;;4.63;2.13;;;15.90;99.90;;;;;;5021497;28;20037;-89
2021/07/06 12:11:23;;;;;;;4.00;1.90;;;16.00;99.90;;;;;;5024226;28;20100;-89
2021/07/06 12:13:57;;;;;;;4.00;2.00;;;16.10;99.90;;;;;;5009816;28;20045;-89
2021/07/06 12:16:27;;;;;;;6.22;1.92;;;16.20;99.90;;;;;;5000393;28;20120;-89
2021/07/06 12:18:59;;;;;;;3.58;1.90;;;16.20;99.90;;;;;;5010801;28;20057;-89
2021/07/06 12:21:28;;;;;;;8.07;2.28;;;16.30;99.90;;;;;;5000684;28;20077;-89
2021/07/06 12:24:03;;;;;;;;;;;16.40;99.90;;;;;;5027681;28;20144;-89
2021/07/06 12:26:32;;;;;;;18.35;3.58;;;16.50;99.90;;;;;;5010369;28;19921;-89
2021/07/06 12:29:00;;;;;;;14.40;3.67;;;16.70;99.90;;;;;;5012607;28;20061;-89
2021/07/06 12:31:36;;;;;;;20.85;4.32;;;16.80;99.90;;;;;;5025341;28;20057;-89
2021/07/06 12:34:15;;;;;;;20.05;5.65;;;17.00;99.90;;;;;;5013875;28;20045;-89
2021/07/06 12:36:58;;;;;;;21.00;5.43;;;17.10;99.90;;;;;;5015546;28;20038;-89
2021/07/06 12:39:37;;;;;;;26.27;5.72;;;17.40;99.90;;;;;;5012472;28;20052;-89
2021/07/06 12:42:20;;;;;;;18.85;5.05;;;17.60;99.90;;;;;;5013556;28;20045;-89
2021/07/06 12:44:50;;;;;;;16.73;4.90;;;17.80;99.90;;;;;;5006405;28;20124;-90
2021/07/06 12:47:34;;;;;;;22.52;4.60;;;18.00;99.90;;;;;;5008116;28;20061;-89
2021/07/06 12:50:07;;;;;;;21.33;4.88;;;18.20;99.90;;;;;;5010488;28;20045;-90
2021/07/06 12:52:45;;;;;;;17.50;4.35;;;18.30;99.90;;;;;;5005950;28;20049;-89
2021/07/06 12:55:16;;;;;;;18.33;4.50;;;18.40;99.90;;;;;;5012830;28;20041;-89
2021/07/06 12:57:48;;;;;;;19.58;4.80;;;18.50;99.90;;;;;;5011878;28;20545;-89